Time;durP1;ratioP1;P1;durP2;ratioP2;P2;SDS_P1;SDS_P2;PMS_P1;PMS_P2;Temp;Humidity;BMP_temperature;BMP_pressure;BME280_temperature;BME280_humidity;BME280_pressure;Samples;Min_cycle;Max_cycle;Signal;HPM_P1;HPM_P2
2022/11/05 00:10:46;;;;;;;3.28;1.55;;;14.00;73.20;;;;;;2272106;58;21594;-75
2022/11/05 00:18:41;;;;;;;2.78;1.27;;;14.10;73.50;;;;;;2299372;55;21206;-75
2022/11/05 00:25:12;;;;;;;2.40;1.20;;;14.00;73.30;;;;;;2272028;58;21514;-74
2022/11/05 00:27:39;;;;;;;3.12;1.20;;;14.00;73.30;;;;;;2275716;58;21488;-75
2022/11/05 00:30:06;;;;;;;3.47;1.20;;;14.00;73.10;;;;;;2278849;58;21418;-75
2022/11/05 00:32:33;;;;;;;3.33;1.48;;;14.00;73.20;;;;;;2278935;58;21119;-75
2022/11/05 00:34:59;;;;;;;4.22;2.00;;;14.00;73.30;;;;;;2279609;58;21111;-76
2022/11/05 00:37:29;;;;;;;4.57;2.03;;;14.00;73.30;;;;;;2278556;58;21150;-74
2022/11/05 00:39:55;;;;;;;4.30;1.85;;;14.00;73.30;;;;;;2279249;56;21665;-76
2022/11/05 00:45:07;;;;;;;4.15;1.67;;;14.00;73.50;;;;;;2281546;57;21134;-76
2022/11/05 00:50:18;;;;;;;4.15;1.70;;;14.00;73.60;;;;;;2279175;58;21634;-75
2022/11/05 00:52:55;;;;;;;3.72;1.45;;;14.00;73.60;;;;;;2278951;58;21685;-76
2022/11/05 00:55:33;;;;;;;3.17;1.23;;;14.00;73.60;;;;;;2278384;58;21638;-75
2022/11/05 00:57:59;;;;;;;2.53;1.17;;;14.00;73.70;;;;;;2278384;58;21138;-75
2022/11/05 01:00:27;;;;;;;3.65;1.37;;;14.00;73.70;;;;;;2512325;55;21657;-75
2022/11/05 01:02:56;;;;;;;2.78;1.48;;;14.00;73.60;;;;;;2512540;55;21474;-75
2022/11/05 01:05:22;;;;;;;3.53;1.30;;;14.00;73.50;;;;;;2361428;55;21137;-75
2022/11/05 01:07:51;;;;;;;2.60;1.25;;;14.00;73.50;;;;;;2275170;58;21212;-75
2022/11/05 01:10:17;;;;;;;3.08;1.10;;;14.00;73.40;;;;;;2275631;58;21074;-76
2022/11/05 01:12:43;;;;;;;3.30;1.33;;;14.00;73.40;;;;;;2275676;58;21702;-76
2022/11/05 01:15:09;;;;;;;2.75;1.20;;;14.00;73.40;;;;;;2273538;58;21065;-75
2022/11/05 01:17:36;;;;;;;2.00;0.90;;;14.00;73.40;;;;;;2277417;58;21149;-75
2022/11/05 01:20:02;;;;;;;1.90;0.95;;;14.00;73.40;;;;;;2366418;55;21122;-77
2022/11/05 01:22:30;;;;;;;2.50;1.15;;;14.00;73.40;;;;;;2277839;58;21368;-75
2022/11/05 01:24:56;;;;;;;3.20;1.33;;;14.00;73.30;;;;;;2511921;55;21075;-75
2022/11/05 01:27:23;;;;;;;5.18;1.00;;;14.00;73.40;;;;;;2278259;58;21128;-75
2022/11/05 01:29:49;;;;;;;2.58;1.27;;;14.00;73.40;;;;;;2511504;55;21961;-75
2022/11/05 01:32:16;;;;;;;1.95;0.95;;;14.00;73.40;;;;;;2278230;58;21129;-76
2022/11/05 01:34:46;;;;;;;2.20;1.00;;;14.00;73.40;;;;;;2278074;58;21047;-76
2022/11/05 01:37:13;;;;;;;2.62;1.20;;;14.00;73.20;;;;;;2433019;55;22155;-75
2022/11/05 01:39:40;;;;;;;3.62;1.50;;;13.90;73.30;;;;;;2514129;55;21047;-75
2022/11/05 01:42:17;;;;;;;2.58;1.25;;;13.90;73.30;;;;;;2278048;58;21663;-75
2022/11/05 01:46:39;;;;;;;2.08;0.98;;;14.00;73.10;;;;;;2478246;55;21153;-75
2022/11/05 01:49:17;;;;;;;2.10;1.10;;;14.00;72.50;;;;;;2284322;58;21114;-75
2022/11/05 01:51:44;;;;;;;3.05;1.45;;;14.00;73.10;;;;;;2391180;55;21931;-76
2022/11/05 01:54:13;;;;;;;2.92;1.37;;;13.90;73.30;;;;;;2283785;58;21614;-75
2022/11/05 01:57:02;;;;;;;3.05;1.42;;;13.90;73.30;;;;;;2284188;58;21055;-74
2022/11/05 01:59:42;;;;;;;2.58;1.15;;;13.90;72.90;;;;;;2282584;58;21074;-75
2022/11/05 02:02:09;;;;;;;2.30;1.00;;;13.90;73.10;;;;;;2518514;55;21110;-75
2022/11/05 02:04:57;;;;;;;2.28;1.10;;;13.90;73.30;;;;;;2283954;58;21086;-75
2022/11/05 02:07:24;;;;;;;3.60;0.98;;;13.90;73.30;;;;;;2381007;55;21865;-75
2022/11/05 02:09:59;;;;;;;2.30;1.08;;;13.90;73.40;;;;;;2284831;58;22040;-75
2022/11/05 02:12:25;;;;;;;3.97;1.50;;;13.90;73.40;;;;;;2517546;55;21062;-74
2022/11/05 02:14:51;;;;;;;2.58;1.40;;;13.90;73.50;;;;;;2282210;58;21486;-75
2022/11/05 02:18:35;;;;;;;2.87;1.12;;;13.90;74.20;;;;;;2304447;55;21232;-74
2022/11/05 02:22:05;;;;;;;2.20;1.10;;;13.90;72.60;;;;;;2278333;58;21910;-75
2022/11/05 02:25:09;;;;;;;2.10;1.00;;;13.90;72.50;;;;;;2512338;55;21087;-74
2022/11/05 02:28:12;;;;;;;3.10;1.20;;;13.90;72.80;;;;;;2278820;58;21078;-74
2022/11/05 02:37:26;;;;;;;1.77;0.90;;;13.90;72.70;;;;;;2510634;55;21058;-75
2022/11/05 02:39:59;;;;;;;1.73;0.68;;;13.90;72.40;;;;;;2510400;55;22037;-74
2022/11/05 02:42:53;;;;;;;2.17;1.00;;;13.90;73.10;;;;;;2511135;55;21110;-74
2022/11/05 02:46:41;;;;;;;2.05;0.90;;;13.80;72.70;;;;;;2279111;58;21118;-74
2022/11/05 02:49:35;;;;;;;2.00;0.93;;;13.80;72.50;;;;;;2417132;55;21669;-73
2022/11/05 02:52:14;;;;;;;5.00;1.20;;;13.90;73.20;;;;;;2424985;55;21106;-75
2022/11/05 02:54:54;;;;;;;2.47;1.10;;;13.80;73.40;;;;;;2513192;55;21081;-74
2022/11/05 02:57:20;;;;;;;2.75;1.17;;;13.80;73.20;;;;;;2508189;55;21135;-75
2022/11/05 02:59:47;;;;;;;2.33;1.20;;;13.80;73.30;;;;;;2290113;55;21051;-75
2022/11/05 03:02:14;;;;;;;2.67;1.00;;;13.80;73.40;;;;;;2344170;55;21606;-74
2022/11/05 03:04:43;;;;;;;2.87;1.10;;;13.80;73.30;;;;;;2285776;55;22041;-74
2022/11/05 03:07:27;;;;;;;2.70;1.12;;;13.80;73.40;;;;;;2277587;58;21078;-75
2022/11/05 03:10:32;;;;;;;3.00;1.20;;;13.80;73.10;;;;;;2277331;55;21702;-75
2022/11/05 03:13:32;;;;;;;3.37;1.20;;;13.80;72.80;;;;;;2278286;58;21071;-74
2022/11/05 03:16:06;;;;;;;2.35;0.95;;;13.80;73.00;;;;;;2376657;55;21941;-75
2022/11/05 03:18:49;;;;;;;3.08;1.25;;;13.80;73.30;;;;;;2410025;55;21054;-75
2022/11/05 03:21:29;;;;;;;2.70;1.23;;;13.80;73.10;;;;;;2278176;58;21989;-75
2022/11/05 03:23:59;;;;;;;2.22;1.10;;;13.80;73.10;;;;;;2278984;56;21139;-74
2022/11/05 03:26:31;;;;;;;2.12;1.12;;;13.80;73.30;;;;;;2511582;55;21078;-75
2022/11/05 03:29:02;;;;;;;2.83;0.80;;;13.80;73.30;;;;;;2279407;58;22164;-76
2022/11/05 03:31:29;;;;;;;2.22;1.00;;;13.70;73.20;;;;;;2355185;55;21078;-74
2022/11/05 03:33:56;;;;;;;2.87;1.05;;;13.70;73.30;;;;;;2279693;58;21090;-75
2022/11/05 03:36:43;;;;;;;2.22;1.17;;;13.70;73.30;;;;;;2515983;55;21947;-75
2022/11/05 03:39:13;;;;;;;3.20;1.30;;;13.70;72.90;;;;;;2282578;58;21058;-75
2022/11/05 03:41:42;;;;;;;3.60;1.62;;;13.70;73.20;;;;;;2459474;55;21463;-75
2022/11/05 03:44:09;;;;;;;2.50;1.20;;;13.70;73.20;;;;;;2282456;58;21063;-75
2022/11/05 03:46:41;;;;;;;3.12;1.52;;;13.70;73.60;;;;;;2305106;55;21141;-75
2022/11/05 03:49:08;;;;;;;2.70;1.40;;;13.70;73.10;;;;;;2281886;58;21142;-75
2022/11/05 03:51:41;;;;;;;2.85;1.30;;;13.70;73.10;;;;;;2417238;55;21521;-75
2022/11/05 03:54:08;;;;;;;3.20;1.30;;;13.70;72.80;;;;;;2283020;58;21995;-76
2022/11/05 03:57:35;;;;;;;2.85;1.30;;;13.60;72.70;;;;;;2398801;55;21119;-75
2022/11/05 04:00:07;;;;;;;2.80;1.40;;;13.70;72.10;;;;;;2282350;58;21070;-75
2022/11/05 04:02:34;;;;;;;;;;;13.60;72.80;;;;;;2435677;55;21122;-75
2022/11/05 04:05:01;;;;;;;3.15;1.30;;;13.60;72.20;;;;;;2282677;58;20069;-75
2022/11/05 04:18:26;;;;;;;1.60;0.65;;;13.50;73.10;;;;;;2513935;55;21166;-75
2022/11/05 04:26:23;;;;;;;2.17;1.05;;;13.50;73.50;;;;;;2513790;55;21070;-75
2022/11/05 04:31:34;;;;;;;2.03;0.88;;;13.50;73.50;;;;;;2278560;58;21066;-75
2022/11/05 04:34:00;;;;;;;1.95;0.80;;;13.50;73.50;;;;;;2291510;55;21650;-75
2022/11/05 04:36:27;;;;;;;2.08;0.90;;;13.50;73.60;;;;;;2512808;55;21066;-75
2022/11/05 04:38:53;;;;;;;1.95;0.80;;;13.50;73.70;;;;;;2278313;58;21069;-75
2022/11/05 04:41:20;;;;;;;2.65;1.20;;;13.50;73.80;;;;;;2329734;55;21407;-75
2022/11/05 04:43:46;;;;;;;3.20;1.52;;;13.50;73.80;;;;;;2279458;58;21082;-74
2022/11/05 04:46:13;;;;;;;3.10;1.27;;;13.50;73.70;;;;;;2281032;58;21146;-75
2022/11/05 04:48:40;;;;;;;3.75;1.92;;;13.50;73.70;;;;;;2416491;55;21127;-75
2022/11/05 04:51:06;;;;;;;2.58;1.37;;;13.50;73.80;;;;;;2278806;58;21138;-74
2022/11/05 04:53:32;;;;;;;3.10;1.45;;;13.50;73.80;;;;;;2508920;55;21986;-75
2022/11/05 04:56:14;;;;;;;2.78;1.40;;;13.50;73.90;;;;;;2278360;58;21040;-74
2022/11/05 04:58:40;;;;;;;3.08;1.55;;;13.50;73.70;;;;;;2512732;55;21399;-74
2022/11/05 05:01:17;;;;;;;2.65;1.35;;;13.50;73.90;;;;;;2276214;58;21070;-74
2022/11/05 05:03:47;;;;;;;2.37;1.12;;;13.60;74.00;;;;;;2508779;55;21133;-75
2022/11/05 05:06:14;;;;;;;2.42;1.30;;;13.50;73.90;;;;;;2274112;58;21126;-75
2022/11/05 05:08:40;;;;;;;2.97;1.45;;;13.60;73.90;;;;;;2365211;55;21158;-74
2022/11/05 05:11:08;;;;;;;3.25;1.33;;;13.50;73.80;;;;;;2272639;58;21209;-74
2022/11/05 05:13:36;;;;;;;2.03;1.10;;;13.50;73.80;;;;;;2375144;55;21126;-75
2022/11/05 05:16:19;;;;;;;2.72;1.48;;;13.60;74.00;;;;;;2271057;58;21043;-75
2022/11/05 05:18:45;;;;;;;2.55;1.20;;;13.60;73.70;;;;;;2273637;58;21618;-75
2022/11/05 05:23:58;;;;;;;2.62;1.25;;;13.60;73.90;;;;;;2273618;58;22070;-75
2022/11/05 05:26:24;;;;;;;3.90;1.60;;;13.60;74.00;;;;;;2274321;58;22004;-75
2022/11/05 05:28:52;;;;;;;2.50;1.40;;;13.60;74.10;;;;;;2272003;58;21181;-74
2022/11/05 05:31:18;;;;;;;5.95;1.80;;;13.60;74.10;;;;;;2276144;58;21061;-74
2022/11/05 05:33:45;;;;;;;3.12;1.60;;;13.60;74.20;;;;;;2277518;58;21127;-75
2022/11/05 05:36:11;;;;;;;2.92;1.70;;;13.60;74.20;;;;;;2277124;58;21117;-75
2022/11/05 05:38:38;;;;;;;4.90;1.80;;;13.70;74.30;;;;;;2279056;58;21354;-75
2022/11/05 05:41:05;;;;;;;3.17;1.80;;;13.70;74.30;;;;;;2513105;55;21146;-74
2022/11/05 05:43:33;;;;;;;2.97;1.55;;;13.70;74.30;;;;;;2280552;58;22039;-74
2022/11/05 05:46:03;;;;;;;3.80;1.90;;;13.70;74.20;;;;;;2282305;58;21461;-76
2022/11/05 05:48:29;;;;;;;3.97;1.95;;;13.70;74.20;;;;;;2446172;55;21205;-74
2022/11/05 05:51:03;;;;;;;3.40;2.00;;;13.70;74.20;;;;;;2403373;55;21065;-74
2022/11/05 05:53:30;;;;;;;3.17;1.80;;;13.70;73.90;;;;;;2516309;55;21102;-74
2022/11/05 05:55:57;;;;;;;3.70;2.10;;;13.70;73.80;;;;;;2282374;58;22030;-75
2022/11/05 05:58:25;;;;;;;3.12;1.83;;;13.70;73.70;;;;;;2280108;58;21170;-74
2022/11/05 06:00:52;;;;;;;4.12;1.80;;;13.70;73.70;;;;;;2312250;55;21062;-76
2022/11/05 06:03:19;;;;;;;3.65;2.08;;;13.70;73.80;;;;;;2311233;55;21504;-75
2022/11/05 06:05:46;;;;;;;4.75;1.95;;;13.70;73.70;;;;;;2278847;58;21054;-75
2022/11/05 06:08:12;;;;;;;3.70;2.10;;;13.60;73.60;;;;;;2275601;58;22126;-75
2022/11/05 06:10:39;;;;;;;3.60;2.00;;;13.70;73.60;;;;;;2275811;58;21058;-76
2022/11/05 06:13:05;;;;;;;3.58;2.12;;;13.70;73.60;;;;;;2508085;55;21578;-76
2022/11/05 06:15:32;;;;;;;3.05;1.80;;;13.60;73.60;;;;;;2273675;58;21113;-75
2022/11/05 06:18:01;;;;;;;3.58;2.20;;;13.70;73.70;;;;;;2502346;55;21198;-75
2022/11/05 06:20:27;;;;;;;4.18;2.47;;;13.60;73.60;;;;;;2273436;58;21622;-75
2022/11/05 06:22:55;;;;;;;3.92;2.45;;;13.60;73.60;;;;;;2283295;55;21066;-74
2022/11/05 06:25:22;;;;;;;4.00;2.35;;;13.60;73.60;;;;;;2479325;55;22028;-75
2022/11/05 06:27:48;;;;;;;4.07;2.53;;;13.60;73.60;;;;;;2275798;58;21114;-73
2022/11/05 06:30:16;;;;;;;4.70;2.75;;;13.60;73.60;;;;;;2277143;58;21079;-74
2022/11/05 06:32:43;;;;;;;3.95;2.37;;;13.60;73.70;;;;;;2512067;55;21071;-74
2022/11/05 06:35:10;;;;;;;5.78;2.80;;;13.60;73.70;;;;;;2277040;58;21086;-74
2022/11/05 06:37:37;;;;;;;4.65;2.90;;;13.60;73.70;;;;;;2443718;55;21130;-75
2022/11/05 06:40:06;;;;;;;4.40;2.12;;;13.60;73.80;;;;;;2279945;58;21046;-74
2022/11/05 06:42:33;;;;;;;4.43;2.37;;;13.60;73.80;;;;;;2338152;55;21066;-74
2022/11/05 06:44:59;;;;;;;4.97;3.03;;;13.60;73.80;;;;;;2282129;58;21138;-74
2022/11/05 06:47:25;;;;;;;6.00;3.10;;;13.60;73.80;;;;;;2515732;55;21133;-74
2022/11/05 06:49:52;;;;;;;5.47;2.85;;;13.60;73.80;;;;;;2282361;58;21162;-74
2022/11/05 06:52:19;;;;;;;4.18;2.58;;;13.60;73.80;;;;;;2289490;55;22207;-74
2022/11/05 06:54:45;;;;;;;4.65;2.70;;;13.60;73.70;;;;;;2282145;58;21062;-74
2022/11/05 06:57:12;;;;;;;5.80;3.45;;;13.60;73.80;;;;;;2307927;55;21094;-74
2022/11/05 06:59:39;;;;;;;5.18;3.30;;;13.60;73.80;;;;;;2515017;55;21434;-74
2022/11/05 07:02:06;;;;;;;5.32;3.05;;;13.60;73.80;;;;;;2404077;55;21090;-74
2022/11/05 07:04:33;;;;;;;4.62;2.72;;;13.70;73.90;;;;;;2281067;58;21428;-74
2022/11/05 07:07:02;;;;;;;4.47;2.80;;;13.60;73.80;;;;;;2282060;58;21066;-74
2022/11/05 07:09:29;;;;;;;5.65;3.47;;;13.60;73.70;;;;;;2281637;58;21949;-74
2022/11/05 07:11:56;;;;;;;5.97;3.65;;;13.60;73.80;;;;;;2282585;58;21438;-75
2022/11/05 07:14:22;;;;;;;4.47;2.75;;;13.60;73.80;;;;;;2281131;58;21067;-74
2022/11/05 07:16:48;;;;;;;4.68;2.83;;;13.60;73.70;;;;;;2358785;55;21078;-74
2022/11/05 07:19:15;;;;;;;5.35;3.20;;;13.60;73.80;;;;;;2281076;58;21062;-74
2022/11/05 07:21:41;;;;;;;6.68;3.62;;;13.60;74.50;;;;;;2401113;55;21079;-74
2022/11/05 07:24:13;;;;;;;5.32;3.40;;;13.60;73.90;;;;;;2281401;58;21107;-74
2022/11/05 07:26:39;;;;;;;5.45;3.30;;;13.70;74.00;;;;;;2375690;55;21074;-74
2022/11/05 07:29:06;;;;;;;4.87;2.85;;;13.70;74.00;;;;;;2281482;58;21071;-74
2022/11/05 07:31:35;;;;;;;5.60;3.33;;;13.70;73.80;;;;;;2515635;55;22046;-74
2022/11/05 07:34:02;;;;;;;4.78;2.90;;;13.70;73.90;;;;;;2283384;58;21059;-74
2022/11/05 07:36:30;;;;;;;4.40;2.92;;;13.70;73.90;;;;;;2514518;55;21567;-74
2022/11/05 07:38:57;;;;;;;4.35;2.55;;;13.70;73.80;;;;;;2281242;58;21106;-74
2022/11/05 07:41:26;;;;;;;4.50;2.80;;;13.70;73.90;;;;;;2515238;55;21038;-74
2022/11/05 07:43:52;;;;;;;5.60;2.97;;;13.70;74.00;;;;;;2281236;58;21912;-74
2022/11/05 07:46:19;;;;;;;4.90;3.03;;;13.70;74.00;;;;;;2279539;55;22191;-74
2022/11/05 07:48:45;;;;;;;5.12;3.00;;;13.70;74.10;;;;;;2433020;55;21497;-75
2022/11/05 07:51:12;;;;;;;4.47;3.00;;;13.70;74.10;;;;;;2394553;55;21552;-74
2022/11/05 07:53:38;;;;;;;4.32;2.75;;;13.70;74.10;;;;;;2276226;58;21115;-74
2022/11/05 07:56:09;;;;;;;7.00;3.35;;;13.70;74.10;;;;;;2359547;55;22248;-74
2022/11/05 07:58:37;;;;;;;6.68;3.72;;;13.80;74.10;;;;;;2315328;55;21578;-75
2022/11/05 08:01:05;;;;;;;6.37;4.15;;;13.80;74.00;;;;;;2448976;55;21840;-74
2022/11/05 08:03:33;;;;;;;5.68;3.30;;;13.80;74.00;;;;;;2274588;58;21074;-75
2022/11/05 08:06:00;;;;;;;4.53;2.92;;;13.80;74.00;;;;;;2452733;55;21054;-75
2022/11/05 08:08:27;;;;;;;6.97;3.60;;;13.80;74.00;;;;;;2267574;58;21134;-74
2022/11/05 08:10:53;;;;;;;5.22;3.25;;;13.80;74.10;;;;;;2266796;58;21638;-74
2022/11/05 08:13:20;;;;;;;6.18;3.37;;;13.80;74.10;;;;;;2302151;55;21606;-74
2022/11/05 08:15:46;;;;;;;6.12;3.03;;;13.90;74.00;;;;;;2309357;55;21182;-74
2022/11/05 08:18:14;;;;;;;4.32;2.90;;;13.90;74.00;;;;;;2452933;55;21066;-74
2022/11/05 08:20:41;;;;;;;5.47;3.58;;;13.80;74.50;;;;;;2253322;58;21596;-75
2022/11/05 08:23:07;;;;;;;5.90;4.03;;;13.90;74.00;;;;;;2270699;55;21670;-74
2022/11/05 08:25:34;;;;;;;8.13;4.05;;;13.90;73.90;;;;;;2328608;55;22399;-74
2022/11/05 08:28:13;;;;;;;6.00;4.18;;;13.90;73.60;;;;;;2248943;58;21063;-74
2022/11/05 08:30:42;;;;;;;5.53;3.55;;;13.90;73.40;;;;;;2295090;55;21189;-74
2022/11/05 08:33:10;;;;;;;5.90;3.67;;;13.90;73.80;;;;;;2216848;58;22281;-74
2022/11/05 08:35:37;;;;;;;7.20;4.35;;;13.90;74.40;;;;;;2290488;55;21174;-73
2022/11/05 08:38:05;;;;;;;6.68;3.97;;;13.90;73.60;;;;;;2215102;58;21145;-74
2022/11/05 08:40:36;;;;;;;5.97;3.83;;;13.90;73.50;;;;;;2395145;55;22199;-75
2022/11/05 08:43:03;;;;;;;6.40;4.05;;;13.90;73.30;;;;;;2387681;55;21118;-76
2022/11/05 08:45:29;;;;;;;7.05;4.57;;;13.90;73.30;;;;;;2175997;55;21186;-73
2022/11/05 08:48:13;;;;;;;6.82;4.20;;;13.90;73.30;;;;;;2178318;58;21774;-75
2022/11/05 08:50:42;;;;;;;7.10;4.18;;;13.90;72.80;;;;;;2208868;55;21194;-73
2022/11/05 08:53:09;;;;;;;7.20;4.53;;;13.90;73.80;;;;;;2124176;58;22374;-74
2022/11/05 08:55:37;;;;;;;7.22;3.95;;;13.90;72.80;;;;;;2202602;55;21071;-75
2022/11/05 08:58:06;;;;;;;6.65;4.62;;;13.90;72.90;;;;;;2168764;55;22334;-74
2022/11/05 09:00:34;;;;;;;7.75;4.15;;;13.90;72.90;;;;;;2096015;58;22668;-74
2022/11/05 09:03:04;;;;;;;6.72;4.40;;;13.90;72.70;;;;;;2108639;58;22856;-73
2022/11/05 09:05:38;;;;;;;6.90;4.22;;;13.90;72.60;;;;;;2286138;55;21635;-73
2022/11/05 09:08:09;;;;;;;6.62;3.47;;;13.90;72.60;;;;;;2143320;58;21075;-74
2022/11/05 09:10:37;;;;;;;5.60;3.90;;;13.90;72.50;;;;;;2387868;55;21304;-74
2022/11/05 09:13:04;;;;;;;5.93;3.50;;;13.90;72.60;;;;;;2215136;55;21047;-75
2022/11/05 09:15:30;;;;;;;5.22;3.50;;;13.90;72.70;;;;;;2392999;55;21058;-74
2022/11/05 09:17:56;;;;;;;5.87;4.07;;;13.90;72.70;;;;;;2185701;58;21046;-75
2022/11/05 09:20:23;;;;;;;7.72;4.28;;;13.90;72.80;;;;;;2201887;58;21063;-76
2022/11/05 09:22:50;;;;;;;6.65;4.15;;;13.90;72.90;;;;;;2172072;58;21075;-73
2022/11/05 09:25:17;;;;;;;5.28;3.53;;;13.90;72.90;;;;;;2197399;55;21453;-74
2022/11/05 09:27:43;;;;;;;7.12;4.12;;;13.90;72.90;;;;;;2170831;58;21261;-74
2022/11/05 09:30:11;;;;;;;7.03;3.95;;;13.90;73.00;;;;;;2176144;55;22045;-73
2022/11/05 09:32:42;;;;;;;9.25;4.40;;;13.90;72.90;;;;;;2173107;58;21634;-73
2022/11/05 09:35:08;;;;;;;5.25;3.28;;;13.90;73.00;;;;;;2263344;55;21035;-75
2022/11/05 09:37:35;;;;;;;5.60;3.83;;;13.90;73.20;;;;;;2209521;58;21062;-75
2022/11/05 09:40:03;;;;;;;8.38;3.80;;;13.90;73.30;;;;;;2391258;55;21499;-74
2022/11/05 09:42:38;;;;;;;6.15;4.10;;;14.00;73.30;;;;;;2191579;55;22076;-75
2022/11/05 09:45:09;;;;;;;5.75;3.50;;;14.00;73.10;;;;;;2190364;55;21081;-74
2022/11/05 09:47:43;;;;;;;11.17;4.87;;;14.00;74.00;;;;;;2196900;58;21752;-74
2022/11/05 09:50:18;;;;;;;6.55;4.12;;;14.00;73.30;;;;;;2342451;55;21050;-74
2022/11/05 09:52:44;;;;;;;7.15;4.78;;;14.10;73.20;;;;;;2176944;58;22283;-74
2022/11/05 09:55:20;;;;;;;5.95;4.25;;;14.10;73.40;;;;;;2224021;55;22137;-74
2022/11/05 09:57:54;;;;;;;6.07;3.47;;;14.10;73.20;;;;;;2177972;58;21046;-74
2022/11/05 10:00:21;;;;;;;7.05;4.00;;;14.10;73.20;;;;;;2157951;58;22779;-73
2022/11/05 10:02:56;;;;;;;5.65;3.47;;;14.20;73.50;;;;;;2150528;58;21059;-75
2022/11/05 10:05:27;;;;;;;5.20;3.28;;;14.20;73.30;;;;;;2379635;55;23177;-73
2022/11/05 10:07:58;;;;;;;4.78;3.20;;;14.20;73.00;;;;;;2166720;58;21940;-74
2022/11/05 10:11:12;;;;;;;5.30;3.22;;;14.30;73.00;;;;;;2333514;55;21059;-75
2022/11/05 10:13:44;;;;;;;5.82;3.47;;;14.30;72.20;;;;;;2222919;58;21110;-74
2022/11/05 10:16:24;;;;;;;;;;;14.30;73.00;;;;;;2267670;55;22634;-74
2022/11/05 10:19:08;;;;;;;3.95;2.30;;;14.30;72.10;;;;;;2221881;58;21127;-73
2022/11/05 10:21:36;;;;;;;5.07;2.95;;;14.30;72.70;;;;;;2287350;55;21050;-75
2022/11/05 10:24:18;;;;;;;5.97;2.85;;;14.30;73.00;;;;;;2293985;55;21094;-74
2022/11/05 10:26:47;;;;;;;4.93;2.80;;;14.40;73.00;;;;;;2241382;58;21066;-75
2022/11/05 10:29:19;;;;;;;5.22;3.05;;;14.40;73.10;;;;;;2408778;55;21054;-75
2022/11/05 10:31:46;;;;;;;6.90;3.05;;;14.40;73.00;;;;;;2513652;55;21208;-74
2022/11/05 10:34:12;;;;;;;5.45;3.58;;;14.40;73.20;;;;;;2284792;58;21075;-75
2022/11/05 10:36:39;;;;;;;4.62;3.05;;;14.40;73.10;;;;;;2385418;55;21081;-74
2022/11/05 10:39:16;;;;;;;4.53;2.45;;;14.40;73.10;;;;;;2507886;55;21924;-74
2022/11/05 10:42:20;;;;;;;4.47;2.55;;;14.40;72.60;;;;;;2522733;55;21059;-75
2022/11/05 10:45:15;;;;;;;5.43;2.60;;;14.40;72.40;;;;;;2287870;58;21146;-75
2022/11/05 10:48:00;;;;;;;3.70;2.17;;;14.40;72.20;;;;;;2305476;55;21146;-75
2022/11/05 10:50:28;;;;;;;4.53;2.20;;;14.40;72.60;;;;;;2521902;55;21510;-76
2022/11/05 10:52:57;;;;;;;4.53;2.20;;;14.40;72.90;;;;;;2522677;55;21355;-75
2022/11/05 10:55:43;;;;;;;4.10;2.67;;;14.40;72.80;;;;;;2306187;55;21441;-75
2022/11/05 10:58:21;;;;;;;4.03;2.40;;;14.40;72.20;;;;;;2310419;55;21133;-74
2022/11/05 11:01:20;;;;;;;6.18;2.65;;;14.40;72.60;;;;;;2288634;58;21936;-74
2022/11/05 11:03:48;;;;;;;6.40;3.08;;;14.40;72.00;;;;;;2356779;55;21062;-75
2022/11/05 11:06:38;;;;;;;7.05;4.00;;;14.40;72.90;;;;;;2522770;55;21074;-75
2022/11/05 11:09:07;;;;;;;5.82;3.47;;;14.40;72.50;;;;;;2522810;55;21182;-74
2022/11/05 11:11:42;;;;;;;6.12;3.78;;;14.40;73.10;;;;;;2491240;55;21921;-75
2022/11/05 11:14:26;;;;;;;5.87;3.17;;;14.50;73.20;;;;;;2522967;55;21090;-74
2022/11/05 11:16:56;;;;;;;5.90;3.00;;;14.50;72.80;;;;;;2287706;58;21146;-75
2022/11/05 11:19:31;;;;;;;7.55;3.03;;;14.50;73.40;;;;;;2287378;58;21206;-75
2022/11/05 11:22:31;;;;;;;6.30;3.53;;;14.50;73.20;;;;;;2287844;58;22139;-74
2022/11/05 11:24:57;;;;;;;5.45;3.17;;;14.50;72.60;;;;;;2287351;58;21107;-75
2022/11/05 11:27:26;;;;;;;6.22;3.53;;;14.50;73.50;;;;;;2369872;55;21680;-75
2022/11/05 11:30:02;;;;;;;5.32;3.42;;;14.50;73.60;;;;;;2287273;58;21127;-75
2022/11/05 11:32:36;;;;;;;5.65;3.53;;;14.60;73.60;;;;;;2287280;58;21967;-74
2022/11/05 11:35:03;;;;;;;8.25;3.62;;;14.60;74.00;;;;;;2415335;55;21062;-74
2022/11/05 11:37:40;;;;;;;6.20;3.75;;;14.60;74.20;;;;;;2286657;58;21559;-75
2022/11/05 11:40:32;;;;;;;5.62;3.08;;;14.70;74.20;;;;;;2505888;55;21106;-76
2022/11/05 11:43:02;;;;;;;5.90;3.45;;;14.80;74.30;;;;;;2287761;58;21555;-75
2022/11/05 11:45:48;;;;;;;4.70;2.85;;;14.80;74.60;;;;;;2287158;58;21070;-76
2022/11/05 11:48:20;;;;;;;5.10;3.42;;;14.90;73.50;;;;;;2287988;58;21118;-75
2022/11/05 11:50:47;;;;;;;6.18;3.12;;;14.90;74.10;;;;;;2288842;58;21518;-75
2022/11/05 11:53:25;;;;;;;6.40;3.40;;;14.90;74.00;;;;;;2287673;58;21122;-75
2022/11/05 11:56:55;;;;;;;6.07;3.75;;;15.00;74.20;;;;;;2405380;55;21051;-74
2022/11/05 11:59:24;;;;;;;5.65;3.67;;;15.10;74.30;;;;;;2287355;58;21047;-76
2022/11/05 12:02:52;;;;;;;8.80;4.05;;;15.10;74.20;;;;;;2288027;58;21057;-75
2022/11/05 12:05:31;;;;;;;5.82;3.55;;;15.20;73.10;;;;;;2288056;58;21627;-75
2022/11/05 12:08:08;;;;;;;5.80;3.87;;;15.30;73.70;;;;;;2522822;55;21110;-75
2022/11/05 12:10:56;;;;;;;7.30;3.67;;;15.30;73.40;;;;;;2395566;55;21059;-75
2022/11/05 12:13:55;;;;;;;6.35;3.42;;;15.40;73.10;;;;;;2287337;58;21166;-75
2022/11/05 12:18:02;;;;;;;6.22;3.10;;;15.40;73.00;;;;;;2371830;55;21085;-74
2022/11/05 12:20:51;;;;;;;6.35;3.00;;;15.50;72.40;;;;;;2523092;55;21131;-74
2022/11/05 12:25:10;;;;;;;5.22;2.80;;;15.50;73.00;;;;;;2288185;58;21118;-74
2022/11/05 12:30:47;;;;;;;13.55;5.97;;;15.50;71.90;;;;;;2288251;58;21102;-76
2022/11/05 12:34:10;;;;;;;5.65;2.75;;;15.50;72.50;;;;;;2292585;55;21071;-75
2022/11/05 12:37:00;;;;;;;5.87;3.00;;;15.60;72.60;;;;;;2288266;58;21059;-74
2022/11/05 12:41:04;;;;;;;6.30;2.97;;;15.60;72.50;;;;;;2325911;55;21662;-74
2022/11/05 12:43:45;;;;;;;4.60;2.35;;;15.60;72.10;;;;;;2288521;58;21114;-74
2022/11/05 12:48:00;;;;;;;5.22;2.12;;;15.60;72.40;;;;;;2339076;55;21111;-74
2022/11/05 12:51:18;;;;;;;5.93;2.15;;;15.60;71.60;;;;;;2287891;58;21046;-76
2022/11/05 12:54:30;;;;;;;4.15;2.17;;;15.60;72.60;;;;;;2288763;58;21110;-75
2022/11/05 12:56:59;;;;;;;5.45;2.50;;;15.60;71.70;;;;;;2288791;56;21050;-75
2022/11/05 13:00:05;;;;;;;5.87;2.50;;;15.50;72.40;;;;;;2506421;55;21614;-74
2022/11/05 13:04:07;;;;;;;7.10;2.10;;;15.60;71.80;;;;;;2288161;58;21066;-74
2022/11/05 13:06:39;;;;;;;3.90;2.35;;;15.60;71.10;;;;;;2288332;58;21114;-75
2022/11/05 13:10:49;;;;;;;4.80;2.15;;;15.50;72.00;;;;;;2288059;58;21090;-75
2022/11/05 13:13:37;;;;;;;5.30;2.40;;;15.50;70.80;;;;;;2287494;58;21083;-77
2022/11/05 13:16:15;;;;;;;5.25;2.80;;;15.50;71.90;;;;;;2288424;58;21141;-75
2022/11/05 13:19:18;;;;;;;3.95;2.37;;;15.50;71.50;;;;;;2288724;58;21128;-75
2022/11/05 13:21:51;;;;;;;4.43;2.12;;;15.40;70.70;;;;;;2289074;58;21525;-75
2022/11/05 13:24:28;;;;;;;5.15;2.53;;;15.30;71.20;;;;;;2288362;58;21130;-75
2022/11/05 13:27:02;;;;;;;5.80;2.03;;;15.30;70.80;;;;;;2287959;58;21046;-75
2022/11/05 13:29:49;;;;;;;3.00;1.65;;;15.30;71.00;;;;;;2321298;55;21102;-75
2022/11/05 13:32:35;;;;;;;4.18;1.70;;;15.20;70.90;;;;;;2288458;58;21892;-76
2022/11/05 13:35:24;;;;;;;3.03;1.52;;;15.20;70.40;;;;;;2288682;58;21129;-75
2022/11/05 13:41:05;;;;;;;2.70;1.37;;;15.10;71.10;;;;;;2287919;58;21673;-74
2022/11/05 13:44:02;;;;;;;2.60;1.60;;;15.10;70.80;;;;;;2288468;58;21185;-75
2022/11/05 13:46:52;;;;;;;2.35;1.23;;;15.00;70.60;;;;;;2314658;55;21070;-75
2022/11/05 13:50:43;;;;;;;2.53;1.42;;;15.00;71.50;;;;;;2287316;58;21054;-75
2022/11/05 13:53:44;;;;;;;4.93;1.60;;;15.00;70.50;;;;;;2523469;55;21154;-75
2022/11/05 13:57:59;;;;;;;3.67;1.25;;;14.90;71.10;;;;;;2287835;58;21063;-75
2022/11/05 14:00:27;;;;;;;2.80;1.10;;;15.00;70.80;;;;;;2288119;58;21039;-75
2022/11/05 14:03:03;;;;;;;2.78;1.20;;;14.90;72.00;;;;;;2288459;58;21121;-74
2022/11/05 14:05:37;;;;;;;2.72;1.15;;;14.90;72.10;;;;;;2287414;58;21110;-74
2022/11/05 14:08:36;;;;;;;4.12;1.35;;;14.90;71.90;;;;;;2287711;58;21590;-74
2022/11/05 14:11:13;;;;;;;3.53;1.60;;;14.90;72.10;;;;;;2288080;58;21721;-75
2022/11/05 14:13:42;;;;;;;3.42;1.52;;;14.90;72.20;;;;;;2288691;58;21110;-74
2022/11/05 14:16:18;;;;;;;3.45;1.80;;;14.90;72.30;;;;;;2288450;58;21186;-74
2022/11/05 14:19:26;;;;;;;3.72;1.70;;;14.90;72.10;;;;;;2288557;58;21058;-74
2022/11/05 14:21:53;;;;;;;3.47;1.90;;;14.90;72.40;;;;;;2288375;58;21122;-75
2022/11/05 14:24:27;;;;;;;3.40;1.75;;;14.90;72.50;;;;;;2287098;58;21130;-73
2022/11/05 14:29:24;;;;;;;3.87;2.20;;;14.90;72.40;;;;;;2285715;58;21237;-74
2022/11/05 14:31:55;;;;;;;3.33;1.60;;;14.90;71.60;;;;;;2521035;55;21413;-74
2022/11/05 14:35:42;;;;;;;3.60;2.20;;;14.90;72.70;;;;;;2285483;58;21867;-74
2022/11/05 14:38:25;;;;;;;4.07;2.15;;;15.00;72.20;;;;;;2287374;58;21186;-74
2022/11/05 14:41:01;;;;;;;3.25;1.77;;;15.00;72.70;;;;;;2523549;55;21134;-75